Time;durP1;ratioP1;P1;durP2;ratioP2;P2;SDS_P1;SDS_P2;PMS_P1;PMS_P2;Temp;Humidity;BMP_temperature;BMP_pressure;BME280_temperature;BME280_humidity;BME280_pressure;Samples;Min_cycle;Max_cycle;Signal;HPM_P1;HPM_P2
2021/12/31 00:00:21;;;;;;;93.57;44.80;;;154.20;2252.80;;;;;;5076958;28;20439;-79
2021/12/31 00:02:47;;;;;;;;;;;154.40;2252.80;;;;;;5094496;28;20020;-80
2021/12/31 00:05:12;;;;;;;86.93;42.25;;;179.20;2252.80;;;;;;5083790;28;19908;-80
2021/12/31 00:07:38;;;;;;;;;;;179.40;2252.80;;;;;;5076735;28;20043;-76
2021/12/31 00:10:05;;;;;;;90.53;46.65;;;179.40;2252.80;;;;;;5070093;28;20382;-75
2021/12/31 00:12:32;;;;;;;90.20;48.15;;;179.40;2252.80;;;;;;5093635;28;20024;-79
2021/12/31 00:14:58;;;;;;;97.70;48.33;;;179.30;2252.80;;;;;;5093277;28;20031;-80
2021/12/31 00:17:24;;;;;;;106.80;53.72;;;179.30;2252.80;;;;;;5088395;28;20021;-78
2021/12/31 00:19:59;;;;;;;104.68;50.20;;;154.50;2252.80;;;;;;5090093;28;20095;-75
2021/12/31 00:25:10;;;;;;;95.53;48.78;;;154.40;2252.80;;;;;;5100496;28;20070;-79
2021/12/31 00:27:35;;;;;;;;;;;154.30;2252.80;;;;;;5090000;28;20075;-74
2021/12/31 00:30:01;;;;;;;92.20;47.65;;;154.40;2252.80;;;;;;5086914;28;19904;-78
2021/12/31 00:32:26;;;;;;;;;;;154.30;2252.80;;;;;;5075638;28;20034;-78
2021/12/31 00:34:52;;;;;;;96.88;46.22;;;154.40;2252.80;;;;;;5093505;28;19912;-74
2021/12/31 00:37:27;;;;;;;;;;;154.40;2252.80;;;;;;5093462;28;20032;-74
2021/12/31 00:39:53;;;;;;;104.43;51.67;;;154.50;2252.80;;;;;;5090760;28;19999;-74
2021/12/31 00:42:19;;;;;;;107.85;51.35;;;154.30;2252.80;;;;;;5075519;28;20024;-74
2021/12/31 00:44:44;;;;;;;;;;;154.30;2252.80;;;;;;5093532;28;20520;-75
2021/12/31 00:47:10;;;;;;;105.45;51.00;;;154.20;2252.80;;;;;;5093383;28;19987;-80
2021/12/31 00:49:36;;;;;;;;;;;154.10;2252.80;;;;;;5093468;28;20024;-81
2021/12/31 00:52:02;;;;;;;100.85;51.53;;;154.10;2252.80;;;;;;5093041;28;19908;-74
2021/12/31 00:54:27;;;;;;;;;;;154.10;2252.80;;;;;;5093302;28;20119;-74
2021/12/31 00:56:59;;;;;;;96.47;47.70;;;154.20;2252.80;;;;;;5093222;28;20344;-76
2021/12/31 00:59:25;;;;;;;96.07;50.63;;;154.20;2252.80;;;;;;5093024;28;20020;-80
2021/12/31 01:01:50;;;;;;;;;;;154.20;2252.80;;;;;;5075887;28;20027;-80
2021/12/31 01:04:16;;;;;;;94.70;48.03;;;154.20;2252.80;;;;;;5092709;28;20351;-76
2021/12/31 01:06:42;;;;;;;;;;;154.10;2252.80;;;;;;5090151;28;20365;-74
2021/12/31 01:09:07;;;;;;;100.47;47.40;;;154.10;2252.80;;;;;;5092748;28;19966;-80
2021/12/31 01:11:33;;;;;;;;;;;154.20;2252.80;;;;;;5092892;28;20426;-75
2021/12/31 01:14:03;;;;;;;102.30;46.17;;;154.30;2252.80;;;;;;5092756;28;19920;-75
2021/12/31 01:16:38;;;;;;;89.55;45.78;;;154.50;2252.80;;;;;;5092615;28;20050;-76
2021/12/31 01:21:33;;;;;;;92.07;48.10;;;179.20;2252.80;;;;;;5092629;28;20027;-78
2021/12/31 01:24:01;;;;;;;97.53;48.10;;;179.40;2252.80;;;;;;5075022;28;20103;-76
2021/12/31 01:26:27;;;;;;;89.22;46.88;;;179.50;2252.80;;;;;;5092519;28;20009;-73
2021/12/31 01:28:53;;;;;;;99.13;46.03;;;179.30;2252.80;;;;;;5075327;28;20020;-76
2021/12/31 01:31:21;;;;;;;;;;;179.30;2252.80;;;;;;5093165;28;20028;-79
2021/12/31 01:33:47;;;;;;;94.38;44.08;;;179.30;2252.80;;;;;;5092180;28;19973;-79
2021/12/31 01:36:12;;;;;;;;;;;179.20;2252.80;;;;;;5074808;28;20111;-80
2021/12/31 01:38:38;;;;;;;102.35;45.15;;;154.50;2252.80;;;;;;5074225;28;19920;-77
2021/12/31 01:41:04;;;;;;;;;;;154.30;2252.80;;;;;;5071852;28;20074;-74
2021/12/31 01:43:29;;;;;;;93.93;45.30;;;154.30;2252.80;;;;;;5092261;28;20369;-75
2021/12/31 01:46:00;;;;;;;;;;;154.30;2252.80;;;;;;5093104;28;20016;-75
2021/12/31 01:48:47;;;;;;;90.85;45.13;;;154.20;2252.80;;;;;;5072054;28;19911;-75
2021/12/31 01:51:13;;;;;;;;;;;154.20;2252.80;;;;;;5090566;28;20016;-76
2021/12/31 01:53:38;;;;;;;94.72;45.00;;;154.20;2252.80;;;;;;5091966;28;20407;-79
2021/12/31 01:56:05;;;;;;;;;;;154.20;2252.80;;;;;;5087239;28;20020;-78
2021/12/31 01:58:32;;;;;;;92.22;44.05;;;154.30;2252.80;;;;;;5092275;28;19911;-81
2021/12/31 02:01:03;;;;;;;87.03;42.05;;;179.30;2252.80;;;;;;5092167;28;20097;-74
2021/12/31 02:03:31;;;;;;;90.82;46.10;;;154.40;2252.80;;;;;;5089714;28;20016;-76
2021/12/31 02:05:58;;;;;;;87.40;43.67;;;154.50;2252.80;;;;;;5092202;28;20039;-79
2021/12/31 02:08:24;;;;;;;99.05;49.05;;;179.20;2252.80;;;;;;5091750;28;20036;-80
2021/12/31 02:10:50;;;;;;;;;;;154.40;2252.80;;;;;;5092439;28;20036;-75
2021/12/31 02:13:17;;;;;;;74.15;33.75;;;154.50;2252.80;;;;;;5073899;28;19907;-80
2021/12/31 02:15:44;;;;;;;97.90;47.20;;;154.50;2252.80;;;;;;5092168;28;20020;-75
2021/12/31 02:18:10;;;;;;;92.75;45.25;;;154.50;2252.80;;;;;;5091758;28;20015;-80
2021/12/31 02:20:36;;;;;;;;;;;179.30;2252.80;;;;;;5074039;28;20391;-80
2021/12/31 02:23:08;;;;;;;73.13;32.55;;;179.30;2252.80;;;;;;5091734;28;19911;-77
2021/12/31 02:25:36;;;;;;;97.60;46.75;;;179.30;2252.80;;;;;;5091661;28;20066;-80
2021/12/31 02:28:03;;;;;;;109.25;47.00;;;179.20;2252.80;;;;;;5091914;28;20044;-80
2021/12/31 02:30:31;;;;;;;92.28;46.15;;;179.40;2252.80;;;;;;5091690;28;20387;-75
2021/12/31 02:32:57;;;;;;;92.07;45.83;;;179.40;2252.80;;;;;;5091760;28;20024;-79
2021/12/31 02:35:23;;;;;;;;;;;179.70;2252.80;;;;;;5092368;28;20024;-80
2021/12/31 02:37:48;;;;;;;84.82;42.28;;;179.50;2252.80;;;;;;5091958;28;19916;-78
2021/12/31 02:40:16;;;;;;;;;;;179.70;2252.80;;;;;;5095639;28;20471;-81
2021/12/31 02:42:42;;;;;;;;;;;179.80;2252.80;;;;;;5078345;28;19912;-79
2021/12/31 02:45:10;;;;;;;91.72;43.53;;;179.90;2252.80;;;;;;5095689;28;19985;-75
2021/12/31 02:47:38;;;;;;;93.57;44.05;;;179.80;2252.80;;;;;;5095043;28;20391;-80
2021/12/31 02:50:05;;;;;;;92.25;44.10;;;179.80;2252.80;;;;;;5095347;28;20013;-74
2021/12/31 02:52:32;;;;;;;91.22;44.75;;;179.60;2252.80;;;;;;5095067;28;20467;-75
2021/12/31 02:55:00;;;;;;;94.32;45.08;;;179.50;2252.80;;;;;;5095193;28;20032;-74
2021/12/31 02:57:26;;;;;;;95.32;46.75;;;179.60;2252.80;;;;;;5095187;28;20020;-79
2021/12/31 02:59:52;;;;;;;95.97;46.40;;;179.40;2252.80;;;;;;5095370;28;20066;-81
2021/12/31 03:02:24;;;;;;;;;;;179.50;2252.80;;;;;;5095431;28;20021;-75
2021/12/31 03:04:52;;;;;;;96.68;46.22;;;179.30;2252.80;;;;;;5092611;28;20355;-74
2021/12/31 03:07:20;;;;;;;93.18;46.35;;;179.50;2252.80;;;;;;5094883;28;20056;-77
2021/12/31 03:09:49;;;;;;;108.05;51.67;;;179.40;2252.80;;;;;;5094771;28;20024;-80
2021/12/31 03:12:16;;;;;;;106.18;49.08;;;179.20;2252.80;;;;;;5095145;28;20020;-80
2021/12/31 03:14:43;;;;;;;109.45;49.45;;;179.20;2252.80;;;;;;5094578;28;20039;-80
2021/12/31 03:17:10;;;;;;;105.45;48.42;;;179.20;2252.80;;;;;;5092480;28;20028;-75
2021/12/31 03:19:37;;;;;;;104.15;47.70;;;154.50;2252.80;;;;;;5094414;28;20030;-75
2021/12/31 03:22:03;;;;;;;107.97;50.75;;;154.40;2252.80;;;;;;5094800;28;20042;-78
2021/12/31 03:24:29;;;;;;;108.35;49.92;;;154.50;2252.80;;;;;;5094742;28;20024;-75
2021/12/31 03:26:55;;;;;;;;;;;154.50;2252.80;;;;;;5094766;28;20158;-80
2021/12/31 03:29:21;;;;;;;107.20;46.70;;;154.40;2252.80;;;;;;5094734;28;19926;-79
2021/12/31 03:31:47;;;;;;;102.80;50.00;;;154.50;2252.80;;;;;;5096967;28;20020;-75
2021/12/31 03:34:14;;;;;;;;;;;154.30;2252.80;;;;;;5104702;28;20024;-75
2021/12/31 03:36:41;;;;;;;85.15;40.20;;;154.40;2252.80;;;;;;5103293;28;19904;-74
2021/12/31 03:39:08;;;;;;;105.82;47.65;;;154.40;2252.80;;;;;;5094329;28;20032;-80
2021/12/31 03:41:33;;;;;;;103.80;48.97;;;154.40;2252.80;;;;;;5094214;28;20027;-74
2021/12/31 03:43:59;;;;;;;;;;;154.50;2252.80;;;;;;5094887;28;20024;-73
2021/12/31 03:46:25;;;;;;;105.85;49.63;;;154.40;2252.80;;;;;;5094216;28;19904;-81
2021/12/31 03:48:50;;;;;;;;;;;154.50;2252.80;;;;;;5076247;28;20146;-74
2021/12/31 03:51:16;;;;;;;105.82;48.65;;;154.50;2252.80;;;;;;5093844;28;19915;-80
2021/12/31 03:53:42;;;;;;;;;;;154.50;2252.80;;;;;;5094422;28;20032;-74
2021/12/31 03:56:07;;;;;;;107.93;48.47;;;154.50;2252.80;;;;;;5093975;28;19904;-75
2021/12/31 03:58:33;;;;;;;;;;;154.50;2252.80;;;;;;5094527;28;20468;-74
2021/12/31 04:00:59;;;;;;;97.03;45.13;;;154.50;2252.80;;;;;;5076476;28;20266;-74
2021/12/31 04:03:24;;;;;;;;;;;179.30;2252.80;;;;;;5094470;28;20024;-78
2021/12/31 04:05:50;;;;;;;98.28;45.42;;;179.20;2252.80;;;;;;5094073;28;19919;-75
2021/12/31 04:08:16;;;;;;;;;;;179.20;2252.80;;;;;;5093983;28;20030;-80
2021/12/31 04:10:43;;;;;;;97.85;42.55;;;179.20;2252.80;;;;;;5093774;28;19932;-74
2021/12/31 04:13:09;;;;;;;102.95;48.40;;;179.30;2252.80;;;;;;5093789;28;20020;-78
2021/12/31 04:15:35;;;;;;;101.18;46.60;;;179.20;2252.80;;;;;;5093900;28;20099;-81
2021/12/31 04:18:00;;;;;;;;;;;154.50;2252.80;;;;;;5093873;28;20099;-75
2021/12/31 04:20:38;;;;;;;100.13;47.25;;;179.20;2252.80;;;;;;5093510;28;19926;-80
2021/12/31 04:23:14;;;;;;;97.03;45.90;;;179.40;2252.80;;;;;;5093480;28;20031;-80
2021/12/31 04:25:43;;;;;;;;;;;179.30;2252.80;;;;;;5093835;28;20020;-75
2021/12/31 04:28:09;;;;;;;102.35;48.60;;;179.40;2252.80;;;;;;5093426;28;20379;-80
2021/12/31 04:30:34;;;;;;;;;;;179.30;2252.80;;;;;;5075570;28;20115;-80
2021/12/31 04:33:01;;;;;;;96.43;45.20;;;179.30;2252.80;;;;;;5075154;28;19908;-74
2021/12/31 04:35:27;;;;;;;97.82;48.22;;;179.40;2252.80;;;;;;5093449;28;20016;-75
2021/12/31 04:37:52;;;;;;;;;;;179.50;2252.80;;;;;;5093491;28;20024;-81
2021/12/31 04:40:18;;;;;;;94.70;44.17;;;179.40;2252.80;;;;;;5093460;28;19950;-79
2021/12/31 04:42:44;;;;;;;;;;;179.70;2252.80;;;;;;5093605;28;20074;-75
2021/12/31 04:45:11;;;;;;;98.28;46.47;;;179.70;2252.80;;;;;;5093277;28;19908;-75
2021/12/31 04:47:38;;;;;;;108.78;47.28;;;179.60;2252.80;;;;;;5092994;28;20024;-74
2021/12/31 04:50:05;;;;;;;97.50;46.95;;;179.60;2252.80;;;;;;5093379;28;20020;-80
2021/12/31 04:52:31;;;;;;;112.88;49.22;;;179.60;2252.80;;;;;;5092730;28;20020;-75
2021/12/31 04:54:56;;;;;;;;;;;179.50;2252.80;;;;;;5093549;28;20028;-80
2021/12/31 04:57:24;;;;;;;101.47;47.28;;;179.40;2252.80;;;;;;5092719;28;19904;-80
2021/12/31 04:59:50;;;;;;;99.15;50.53;;;179.40;2252.80;;;;;;5092935;28;20108;-75
2021/12/31 05:02:16;;;;;;;;;;;179.30;2252.80;;;;;;5092606;28;20048;-75
2021/12/31 05:04:42;;;;;;;111.97;48.25;;;179.50;2252.80;;;;;;5092662;28;19993;-81
2021/12/31 05:07:07;;;;;;;;;;;179.60;2252.80;;;;;;5091553;28;20014;-80
2021/12/31 05:09:33;;;;;;;96.07;44.85;;;179.70;2252.80;;;;;;5077458;28;20368;-75
2021/12/31 05:12:00;;;;;;;;;;;179.50;2252.80;;;;;;5093598;28;20087;-76
2021/12/31 05:14:25;;;;;;;84.28;40.55;;;179.30;2252.80;;;;;;5092481;28;19912;-76
2021/12/31 05:16:51;;;;;;;;;;;179.30;2252.80;;;;;;5074799;28;20081;-75
2021/12/31 05:19:17;;;;;;;105.03;47.78;;;154.50;2252.80;;;;;;5092593;28;19963;-75
2021/12/31 05:21:42;;;;;;;;;;;154.50;2252.80;;;;;;5092975;28;20027;-81
2021/12/31 05:24:08;;;;;;;106.68;49.08;;;179.20;2252.80;;;;;;5092307;28;19915;-78
2021/12/31 05:26:34;;;;;;;;;;;154.50;2252.80;;;;;;5092588;28;20016;-75
2021/12/31 05:29:01;;;;;;;105.07;48.47;;;179.30;2252.80;;;;;;5092653;28;19904;-74
2021/12/31 05:31:27;;;;;;;107.35;49.40;;;179.20;2252.80;;;;;;5092217;28;20467;-79
2021/12/31 05:33:53;;;;;;;;;;;154.50;2252.80;;;;;;5090227;28;20028;-75
2021/12/31 05:36:19;;;;;;;104.68;46.47;;;154.50;2252.80;;;;;;5092552;28;20505;-79
2021/12/31 05:38:44;;;;;;;;;;;154.40;2252.80;;;;;;5092653;28;20039;-79
2021/12/31 05:41:10;;;;;;;104.45;48.55;;;154.50;2252.80;;;;;;5092107;28;19908;-80
2021/12/31 05:43:36;;;;;;;;;;;154.30;2252.80;;;;;;5093119;28;20048;-75
2021/12/31 05:46:02;;;;;;;111.18;49.17;;;154.30;2252.80;;;;;;5092296;28;19904;-74
2021/12/31 05:48:29;;;;;;;;;;;154.30;2252.80;;;;;;5093126;28;20531;-80
2021/12/31 05:50:55;;;;;;;105.68;37.22;;;154.30;2252.80;;;;;;5071506;28;20363;-74
2021/12/31 05:53:21;;;;;;;106.95;48.75;;;154.30;2252.80;;;;;;5091666;28;20069;-79
2021/12/31 05:55:46;;;;;;;;;;;154.40;2252.80;;;;;;5092667;28;20020;-80
2021/12/31 05:58:12;;;;;;;104.40;44.55;;;179.30;2252.80;;;;;;5092047;28;19904;-80
2021/12/31 06:00:38;;;;;;;107.90;46.15;;;179.30;2252.80;;;;;;5092418;28;20395;-80
2021/12/31 06:03:04;;;;;;;;;;;179.30;2252.80;;;;;;5092312;28;20016;-74
2021/12/31 06:05:30;;;;;;;98.50;44.58;;;179.40;2252.80;;;;;;5092107;28;19912;-76
2021/12/31 06:07:57;;;;;;;;;;;179.60;2252.80;;;;;;5092407;28;20091;-75
2021/12/31 06:10:24;;;;;;;101.72;44.83;;;179.60;2252.80;;;;;;5092040;28;19908;-79
2021/12/31 06:12:57;;;;;;;94.63;44.83;;;179.50;2252.80;;;;;;5093402;28;20468;-75
2021/12/31 06:15:25;;;;;;;104.63;47.30;;;179.30;2252.80;;;;;;5094394;28;20047;-79
2021/12/31 06:17:51;;;;;;;95.60;48.17;;;179.40;2252.80;;;;;;5077880;28;20107;-79
2021/12/31 06:20:17;;;;;;;;;;;179.40;2252.80;;;;;;5096571;28;20116;-80
2021/12/31 06:22:42;;;;;;;104.78;48.40;;;179.30;2252.80;;;;;;5096298;28;19904;-76
2021/12/31 06:25:08;;;;;;;;;;;179.30;2252.80;;;;;;5077850;28;20054;-79
2021/12/31 06:27:34;;;;;;;103.70;48.60;;;179.40;2252.80;;;;;;5095569;28;19916;-78
2021/12/31 06:30:00;;;;;;;;;;;179.40;2252.80;;;;;;5096259;28;20030;-74
2021/12/31 06:32:25;;;;;;;99.00;45.35;;;179.70;2252.80;;;;;;5095726;28;19912;-81
2021/12/31 06:34:51;;;;;;;;;;;179.70;2252.80;;;;;;5096036;28;20392;-77
2021/12/31 06:37:17;;;;;;;96.68;42.13;;;179.70;2252.80;;;;;;5095511;28;19961;-80
2021/12/31 06:39:44;;;;;;;;;;;179.70;2252.80;;;;;;5095771;28;20078;-75
2021/12/31 06:42:10;;;;;;;;;;;179.80;2252.80;;;;;;5095759;28;19952;-75
2021/12/31 06:44:39;;;;;;;87.35;42.47;;;179.70;2252.80;;;;;;5082565;28;19911;-76
2021/12/31 06:47:06;;;;;;;78.05;40.85;;;179.80;2252.80;;;;;;5103678;28;20467;-76
2021/12/31 06:49:32;;;;;;;88.30;43.08;;;179.90;2252.80;;;;;;5097861;28;20070;-81
2021/12/31 06:51:58;;;;;;;;;;;180.00;2252.80;;;;;;5096144;28;20020;-81
2021/12/31 06:54:24;;;;;;;84.03;41.53;;;180.00;2252.80;;;;;;5095690;28;19959;-81
2021/12/31 06:56:50;;;;;;;93.97;45.03;;;179.90;2252.80;;;;;;5095405;28;20020;-79
2021/12/31 06:59:16;;;;;;;;;;;180.00;2252.80;;;;;;5096264;28;20073;-78
2021/12/31 07:01:42;;;;;;;93.70;43.13;;;180.10;2252.80;;;;;;5095390;28;19904;-77
2021/12/31 07:04:07;;;;;;;;;;;180.00;2252.80;;;;;;5096104;28;20425;-76
2021/12/31 07:06:33;;;;;;;91.28;41.72;;;180.00;2252.80;;;;;;5095964;28;19904;-79
2021/12/31 07:08:58;;;;;;;;;;;205.00;2252.80;;;;;;5077203;28;20111;-77
2021/12/31 07:11:24;;;;;;;79.40;40.75;;;180.10;2252.80;;;;;;5095733;28;19997;-81
2021/12/31 07:13:50;;;;;;;;;;;180.00;2252.80;;;;;;5095683;28;20399;-75
2021/12/31 07:16:16;;;;;;;87.07;43.17;;;180.10;2252.80;;;;;;5095560;28;20370;-80
2021/12/31 07:18:41;;;;;;;;;;;180.10;2252.80;;;;;;5095372;28;20035;-76
2021/12/31 07:21:07;;;;;;;82.70;41.28;;;180.10;2252.80;;;;;;5076866;28;19911;-79
2021/12/31 07:23:33;;;;;;;;;;;204.80;2252.80;;;;;;5095112;28;20020;-76
2021/12/31 07:25:59;;;;;;;91.68;44.63;;;205.00;2252.80;;;;;;5094203;28;19961;-77
2021/12/31 07:28:24;;;;;;;;;;;205.00;2252.80;;;;;;5095102;28;20476;-79
2021/12/31 07:30:50;;;;;;;98.07;47.90;;;205.10;2252.80;;;;;;5076410;28;19904;-75
2021/12/31 07:33:17;;;;;;;;;;;205.20;2252.80;;;;;;5095324;28;20059;-80
2021/12/31 07:35:42;;;;;;;78.90;41.83;;;205.30;2252.80;;;;;;5094545;28;19904;-81
2021/12/31 07:38:11;;;;;;;;;;;205.30;2252.80;;;;;;5089667;28;20121;-78
2021/12/31 07:40:39;;;;;;;95.65;50.00;;;205.40;2252.80;;;;;;5066657;28;19950;-78
2021/12/31 07:43:09;;;;;;;102.13;54.45;;;205.10;2252.80;;;;;;5067906;28;20372;-78
2021/12/31 07:45:43;;;;;;;98.72;50.92;;;205.00;2252.80;;;;;;5094458;28;20024;-78
2021/12/31 07:48:09;;;;;;;108.35;53.75;;;205.20;2252.80;;;;;;5076627;28;20468;-75
2021/12/31 07:50:36;;;;;;;;;;;205.20;2252.80;;;;;;5095084;28;20102;-80
2021/12/31 07:53:03;;;;;;;91.07;43.42;;;205.00;2252.80;;;;;;5094628;28;19919;-78
2021/12/31 07:55:29;;;;;;;104.25;52.97;;;205.00;2252.80;;;;;;5094813;28;20043;-81
2021/12/31 07:57:54;;;;;;;;;;;205.10;2252.80;;;;;;5095125;28;20020;-79
2021/12/31 08:00:20;;;;;;;85.43;43.05;;;205.30;2252.80;;;;;;5094810;28;19922;-78
2021/12/31 08:02:46;;;;;;;;;;;205.30;2252.80;;;;;;5076612;28;20031;-79
2021/12/31 08:05:11;;;;;;;84.32;44.35;;;205.30;2252.80;;;;;;5094487;28;19904;-78
2021/12/31 08:07:37;;;;;;;;;;;205.30;2252.80;;;;;;5094450;28;20032;-76
2021/12/31 08:10:04;;;;;;;81.78;41.03;;;205.50;2252.80;;;;;;5076409;28;19940;-79
2021/12/31 08:12:30;;;;;;;79.60;43.88;;;205.40;2252.80;;;;;;5094170;28;20024;-75
2021/12/31 08:14:55;;;;;;;;;;;205.60;2252.80;;;;;;5094653;28;20411;-78
2021/12/31 08:17:21;;;;;;;84.68;45.20;;;205.60;2252.80;;;;;;5093696;28;19907;-78
2021/12/31 08:19:47;;;;;;;;;;;205.70;2252.80;;;;;;5076121;28;20027;-75
2021/12/31 08:22:12;;;;;;;90.72;46.05;;;205.70;2252.80;;;;;;5093820;28;19904;-77
2021/12/31 08:24:38;;;;;;;;;;;230.40;2252.80;;;;;;5075956;28;20399;-74
2021/12/31 08:27:04;;;;;;;91.47;45.83;;;230.40;2252.80;;;;;;5075564;28;19916;-80
2021/12/31 08:29:29;;;;;;;;;;;230.40;2252.80;;;;;;5094356;28;20017;-77
2021/12/31 08:31:55;;;;;;;77.65;41.25;;;230.40;2252.80;;;;;;5093917;28;19911;-76
2021/12/31 08:34:21;;;;;;;;;;;230.50;2252.80;;;;;;5094071;28;20140;-75
2021/12/31 08:36:47;;;;;;;83.32;43.20;;;230.70;2252.80;;;;;;5092565;28;19926;-78
2021/12/31 08:39:12;;;;;;;;;;;230.70;2252.80;;;;;;5079745;28;20035;-76
2021/12/31 08:41:39;;;;;;;89.03;46.53;;;230.70;2252.80;;;;;;5055217;28;20583;-74
2021/12/31 08:44:07;;;;;;;95.28;49.55;;;230.70;2252.80;;;;;;5073059;28;20020;-77
2021/12/31 08:46:34;;;;;;;80.85;43.88;;;230.70;2252.80;;;;;;5056553;28;20423;-76
2021/12/31 08:49:00;;;;;;;76.47;42.35;;;230.70;2252.80;;;;;;5075821;28;20495;-76
2021/12/31 08:51:26;;;;;;;;;;;230.70;2252.80;;;;;;5093455;28;20073;-75
2021/12/31 08:53:53;;;;;;;82.18;43.63;;;230.80;2252.80;;;;;;5093130;28;20309;-75
2021/12/31 08:56:19;;;;;;;88.18;48.10;;;230.80;2252.80;;;;;;5077990;28;20024;-75
2021/12/31 08:58:45;;;;;;;84.30;45.35;;;230.90;2252.80;;;;;;5080223;28;20148;-77
2021/12/31 09:01:11;;;;;;;;;;;231.10;2252.80;;;;;;5073223;28;20017;-80
2021/12/31 09:03:36;;;;;;;88.32;46.63;;;231.20;2252.80;;;;;;5057263;28;19908;-76
2021/12/31 09:06:02;;;;;;;;;;;231.10;2252.80;;;;;;5082369;28;20031;-75
2021/12/31 09:08:28;;;;;;;84.82;46.85;;;231.20;2252.80;;;;;;5074854;28;20360;-80
2021/12/31 09:10:54;;;;;;;85.40;46.38;;;231.30;2252.80;;;;;;5075253;28;20099;-78
2021/12/31 09:13:20;;;;;;;;;;;231.10;2252.80;;;;;;5054944;28;20496;-79
2021/12/31 09:15:47;;;;;;;80.78;43.40;;;231.20;2252.80;;;;;;5072921;28;19940;-79
2021/12/31 09:18:13;;;;;;;80.13;44.17;;;231.20;2252.80;;;;;;5072282;28;20039;-76
2021/12/31 09:20:40;;;;;;;84.78;46.72;;;231.30;2252.80;;;;;;5054860;28;20111;-74
2021/12/31 09:23:05;;;;;;;81.55;45.63;;;231.30;2252.80;;;;;;5072639;28;20012;-75
2021/12/31 09:25:31;;;;;;;;;;;231.30;2252.80;;;;;;5072912;28;20412;-74
2021/12/31 09:27:57;;;;;;;77.50;42.60;;;231.30;2252.80;;;;;;5072131;28;19970;-75
2021/12/31 09:30:22;;;;;;;;;;;231.20;2252.80;;;;;;5072989;28;20392;-76
2021/12/31 09:32:48;;;;;;;77.65;41.33;;;231.30;2252.80;;;;;;5054119;28;20249;-78
2021/12/31 09:35:14;;;;;;;;;;;231.30;2252.80;;;;;;5054801;28;20446;-81
2021/12/31 09:37:40;;;;;;;80.45;43.47;;;256.00;2252.80;;;;;;5054319;28;19912;-74
2021/12/31 09:40:06;;;;;;;;;;;256.10;2252.80;;;;;;5072519;28;20031;-75
2021/12/31 09:42:32;;;;;;;88.32;46.30;;;256.10;2252.80;;;;;;5072408;28;19973;-74
2021/12/31 09:44:58;;;;;;;;;;;256.20;2252.80;;;;;;5072629;28;20112;-75
2021/12/31 09:47:23;;;;;;;90.22;46.88;;;256.20;2252.80;;;;;;5053991;28;20379;-78
2021/12/31 09:49:49;;;;;;;84.50;47.65;;;256.20;2252.80;;;;;;5071933;28;20570;-76
2021/12/31 09:52:15;;;;;;;;;;;256.30;2252.80;;;;;;5073178;28;20020;-75
2021/12/31 09:54:45;;;;;;;74.47;40.70;;;256.30;2252.80;;;;;;5074500;28;20010;-77
2021/12/31 09:57:15;;;;;;;78.18;42.25;;;256.40;2252.80;;;;;;5073541;28;20261;-75
2021/12/31 09:59:41;;;;;;;77.47;41.28;;;256.50;2252.80;;;;;;5071983;28;20075;-74
2021/12/31 10:02:09;;;;;;;;;;;256.50;2252.80;;;;;;5072460;28;20025;-76
2021/12/31 10:04:56;;;;;;;72.75;39.25;;;256.40;2252.80;;;;;;5072290;28;19911;-77
2021/12/31 10:07:24;;;;;;;75.38;42.10;;;256.60;2252.80;;;;;;5053845;28;20090;-77
2021/12/31 10:10:12;;;;;;;80.75;44.70;;;256.70;2252.80;;;;;;5053911;28;20084;-75
2021/12/31 10:12:58;;;;;;;72.82;40.80;;;256.70;2252.80;;;;;;5054081;28;20024;-77
2021/12/31 10:15:25;;;;;;;66.90;41.90;;;256.80;2252.80;;;;;;5071690;28;20506;-77
2021/12/31 10:17:53;;;;;;;70.80;41.28;;;256.90;2252.80;;;;;;5053809;28;20265;-75
2021/12/31 10:20:19;;;;;;;68.35;39.17;;;281.60;2278.40;;;;;;5054050;28;20335;-76
2021/12/31 10:22:46;;;;;;;62.08;35.03;;;281.60;2278.40;;;;;;5071880;28;20020;-76
2021/12/31 10:25:21;;;;;;;54.80;32.92;;;281.90;2278.40;;;;;;5071910;28;20020;-75
2021/12/31 10:27:48;;;;;;;60.85;35.08;;;281.80;2278.40;;;;;;5071491;28;20044;-77
2021/12/31 10:30:14;;;;;;;59.55;35.85;;;281.90;2278.40;;;;;;5072070;28;20074;-75
2021/12/31 10:32:46;;;;;;;56.17;32.85;;;282.00;2278.40;;;;;;5071801;28;20464;-78
2021/12/31 10:35:14;;;;;;;56.42;32.47;;;282.10;2278.40;;;;;;5053561;28;20036;-75
2021/12/31 10:38:01;;;;;;;54.65;32.78;;;282.10;2278.40;;;;;;5071941;28;20033;-78
2021/12/31 10:40:36;;;;;;;55.55;31.75;;;282.20;2278.40;;;;;;5071729;28;20025;-78
2021/12/31 10:43:18;;;;;;;51.83;30.17;;;282.30;2278.40;;;;;;5071666;28;20031;-75
2021/12/31 10:46:08;;;;;;;52.45;30.08;;;282.40;2278.40;;;;;;5071740;28;20069;-75
2021/12/31 10:48:43;;;;;;;54.47;31.10;;;307.40;2304.00;;;;;;5053488;28;20033;-75
2021/12/31 10:51:11;;;;;;;54.63;30.65;;;282.50;2278.40;;;;;;5071479;28;20021;-75
2021/12/31 10:53:37;;;;;;;54.63;32.05;;;282.50;2278.40;;;;;;5053784;28;20072;-76
2021/12/31 10:56:12;;;;;;;55.90;32.63;;;282.50;2278.40;;;;;;5071474;28;20468;-80
2021/12/31 10:58:39;;;;;;;53.33;33.67;;;307.20;2304.00;;;;;;5053724;28;20025;-77
2021/12/31 11:01:10;;;;;;;57.97;34.15;;;307.30;2304.00;;;;;;5074444;28;20020;-75
2021/12/31 11:03:38;;;;;;;47.88;28.77;;;307.30;2304.00;;;;;;5086289;28;20444;-76
2021/12/31 11:06:05;;;;;;;45.08;27.23;;;307.30;2304.00;;;;;;5076180;28;20024;-77
2021/12/31 11:08:32;;;;;;;46.75;26.48;;;307.40;2304.00;;;;;;5093742;28;20537;-76
2021/12/31 11:10:59;;;;;;;40.28;24.80;;;307.50;2304.00;;;;;;5094061;28;20032;-75
2021/12/31 11:13:28;;;;;;;35.95;21.92;;;307.60;2304.00;;;;;;5094921;28;20023;-76
2021/12/31 11:15:55;;;;;;;37.25;21.30;;;307.80;2304.00;;;;;;5076605;28;20032;-75
2021/12/31 11:18:24;;;;;;;33.42;18.92;;;308.10;2304.00;;;;;;5076908;28;20456;-78
2021/12/31 11:20:57;;;;;;;34.20;18.27;;;332.90;2329.60;;;;;;5076924;28;20024;-75
2021/12/31 11:23:28;;;;;;;35.30;20.17;;;332.90;2329.60;;;;;;5095095;28;20054;-76
2021/12/31 11:26:00;;;;;;;30.80;18.63;;;332.90;2329.60;;;;;;5076498;28;20035;-76
2021/12/31 11:28:34;;;;;;;34.20;19.48;;;333.20;2329.60;;;;;;5095013;28;20079;-75
2021/12/31 11:31:24;;;;;;;32.47;18.58;;;333.30;2329.60;;;;;;5094682;28;20073;-75
2021/12/31 11:33:59;;;;;;;42.88;21.73;;;333.20;2329.60;;;;;;5094678;28;20460;-75
2021/12/31 11:36:53;;;;;;;31.38;19.20;;;333.10;2329.60;;;;;;5094991;28;20094;-75
2021/12/31 11:39:33;;;;;;;37.60;19.50;;;333.00;2329.60;;;;;;5094484;28;20028;-76
2021/12/31 11:42:07;;;;;;;33.97;19.20;;;332.90;2329.60;;;;;;5076307;28;20120;-76
2021/12/31 11:44:34;;;;;;;39.83;21.88;;;332.90;2329.60;;;;;;5094796;28;21020;-78
2021/12/31 11:47:17;;;;;;;52.83;27.23;;;332.80;2329.60;;;;;;5076803;28;20028;-76
2021/12/31 11:49:45;;;;;;;51.03;27.65;;;332.90;2329.60;;;;;;5076542;28;20093;-76
2021/12/31 11:52:20;;;;;;;38.33;20.33;;;332.90;2329.60;;;;;;5094966;28;20471;-75
2021/12/31 11:55:00;;;;;;;46.45;22.45;;;332.90;2329.60;;;;;;5094622;28;20032;-81
2021/12/31 11:57:29;;;;;;;45.78;24.85;;;333.00;2329.60;;;;;;5076802;28;20020;-80
2021/12/31 11:59:56;;;;;;;51.70;26.17;;;333.10;2329.60;;;;;;5076867;28;20100;-80
2021/12/31 12:02:33;;;;;;;33.10;20.85;;;333.20;2329.60;;;;;;5094390;28;20017;-77
2021/12/31 12:04:58;;;;;;;46.58;23.25;;;333.30;2329.60;;;;;;5074811;28;20131;-79
2021/12/31 12:07:39;;;;;;;44.05;23.08;;;333.40;2329.60;;;;;;5093932;28;20103;-79
2021/12/31 12:10:04;;;;;;;34.67;19.17;;;333.40;2329.60;;;;;;5072722;28;20020;-78
2021/12/31 12:12:33;;;;;;;37.88;21.00;;;333.50;2329.60;;;;;;5093646;28;20023;-79
2021/12/31 12:15:01;;;;;;;35.35;20.75;;;333.50;2329.60;;;;;;5075735;28;20491;-77
2021/12/31 12:17:30;;;;;;;39.33;19.92;;;333.50;2329.60;;;;;;5094066;28;20028;-79
2021/12/31 12:20:02;;;;;;;37.22;19.50;;;333.50;2329.60;;;;;;5075328;28;20028;-74
2021/12/31 12:22:40;;;;;;;32.88;19.55;;;333.50;2329.60;;;;;;5093892;28;20047;-76
2021/12/31 12:25:38;;;;;;;31.70;15.23;;;333.50;2329.60;;;;;;5093908;28;20107;-79
2021/12/31 12:28:07;;;;;;;31.75;16.52;;;333.50;2329.60;;;;;;4991953;28;20078;-74
2021/12/31 12:30:36;;;;;;;25.75;15.77;;;333.60;2329.60;;;;;;4991883;28;20502;-77